sensor_id;sensor_type;location;lat;lon;timestamp;P1;durP1;ratioP1;P2;durP2;ratioP2
6223;SDS011;3145;42.726;23.342;2023-01-23T00:00:57;10.10;;;7.67;;
6223;SDS011;3145;42.726;23.342;2023-01-23T00:03:24;14.27;;;9.63;;
6223;SDS011;3145;42.726;23.342;2023-01-23T00:05:57;10.00;;;9.00;;
6223;SDS011;3145;42.726;23.342;2023-01-23T00:08:24;16.63;;;11.57;;
6223;SDS011;3145;42.726;23.342;2023-01-23T00:10:51;12.93;;;10.23;;
6223;SDS011;3145;42.726;23.342;2023-01-23T00:13:20;12.87;;;11.57;;
6223;SDS011;3145;42.726;23.342;2023-01-23T00:15:47;17.30;;;12.50;;
6223;SDS011;3145;42.726;23.342;2023-01-23T00:18:14;13.57;;;10.73;;
6223;SDS011;3145;42.726;23.342;2023-01-23T00:20:41;13.87;;;10.87;;
6223;SDS011;3145;42.726;23.342;2023-01-23T00:23:09;14.30;;;10.77;;
6223;SDS011;3145;42.726;23.342;2023-01-23T00:25:36;10.97;;;8.97;;
6223;SDS011;3145;42.726;23.342;2023-01-23T00:28:03;13.23;;;9.23;;
6223;SDS011;3145;42.726;23.342;2023-01-23T00:30:31;9.23;;;8.33;;
6223;SDS011;3145;42.726;23.342;2023-01-23T00:32:58;7.63;;;6.53;;
6223;SDS011;3145;42.726;23.342;2023-01-23T00:35:25;12.27;;;9.13;;
6223;SDS011;3145;42.726;23.342;2023-01-23T00:37:52;9.97;;;8.70;;
6223;SDS011;3145;42.726;23.342;2023-01-23T00:40:19;10.47;;;9.37;;
6223;SDS011;3145;42.726;23.342;2023-01-23T00:42:45;11.63;;;9.33;;
6223;SDS011;3145;42.726;23.342;2023-01-23T00:45:12;10.47;;;9.07;;
6223;SDS011;3145;42.726;23.342;2023-01-23T00:47:40;12.50;;;10.03;;
6223;SDS011;3145;42.726;23.342;2023-01-23T00:50:07;12.10;;;10.27;;
6223;SDS011;3145;42.726;23.342;2023-01-23T00:52:35;15.80;;;10.87;;
6223;SDS011;3145;42.726;23.342;2023-01-23T00:55:02;17.47;;;11.27;;
6223;SDS011;3145;42.726;23.342;2023-01-23T00:57:29;14.63;;;11.43;;
6223;SDS011;3145;42.726;23.342;2023-01-23T00:59:56;16.57;;;13.83;;
6223;SDS011;3145;42.726;23.342;2023-01-23T01:02:23;18.67;;;13.83;;
6223;SDS011;3145;42.726;23.342;2023-01-23T01:04:51;18.20;;;12.07;;
6223;SDS011;3145;42.726;23.342;2023-01-23T01:07:17;13.23;;;10.73;;
6223;SDS011;3145;42.726;23.342;2023-01-23T01:09:44;13.97;;;11.60;;
6223;SDS011;3145;42.726;23.342;2023-01-23T01:12:11;14.43;;;10.93;;
6223;SDS011;3145;42.726;23.342;2023-01-23T01:14:38;16.93;;;10.93;;
6223;SDS011;3145;42.726;23.342;2023-01-23T01:17:04;11.60;;;10.33;;
6223;SDS011;3145;42.726;23.342;2023-01-23T01:19:31;12.10;;;10.63;;
6223;SDS011;3145;42.726;23.342;2023-01-23T01:21:59;13.87;;;11.33;;
6223;SDS011;3145;42.726;23.342;2023-01-23T01:24:26;17.67;;;11.17;;
6223;SDS011;3145;42.726;23.342;2023-01-23T01:26:53;9.83;;;8.77;;
6223;SDS011;3145;42.726;23.342;2023-01-23T01:29:19;18.50;;;12.60;;
6223;SDS011;3145;42.726;23.342;2023-01-23T01:31:46;18.40;;;9.97;;
6223;SDS011;3145;42.726;23.342;2023-01-23T01:34:13;11.27;;;7.50;;
6223;SDS011;3145;42.726;23.342;2023-01-23T01:36:40;9.60;;;8.70;;
6223;SDS011;3145;42.726;23.342;2023-01-23T01:39:08;6.53;;;5.53;;
6223;SDS011;3145;42.726;23.342;2023-01-23T01:41:34;9.40;;;7.73;;
6223;SDS011;3145;42.726;23.342;2023-01-23T01:44:01;12.10;;;7.17;;
6223;SDS011;3145;42.726;23.342;2023-01-23T01:46:28;9.37;;;8.47;;
6223;SDS011;3145;42.726;23.342;2023-01-23T01:48:59;9.53;;;6.23;;
6223;SDS011;3145;42.726;23.342;2023-01-23T01:51:32;8.93;;;7.90;;
6223;SDS011;3145;42.726;23.342;2023-01-23T01:54:04;8.93;;;8.03;;
6223;SDS011;3145;42.726;23.342;2023-01-23T01:56:37;9.37;;;8.20;;
6223;SDS011;3145;42.726;23.342;2023-01-23T01:59:09;9.60;;;8.63;;
6223;SDS011;3145;42.726;23.342;2023-01-23T02:01:37;6.70;;;6.03;;
6223;SDS011;3145;42.726;23.342;2023-01-23T02:04:06;8.60;;;7.87;;
6223;SDS011;3145;42.726;23.342;2023-01-23T02:06:34;9.03;;;7.70;;
6223;SDS011;3145;42.726;23.342;2023-01-23T02:09:02;7.87;;;7.13;;
6223;SDS011;3145;42.726;23.342;2023-01-23T02:11:35;10.40;;;7.80;;
6223;SDS011;3145;42.726;23.342;2023-01-23T02:14:02;11.30;;;8.53;;
6223;SDS011;3145;42.726;23.342;2023-01-23T02:16:29;7.50;;;6.80;;
6223;SDS011;3145;42.726;23.342;2023-01-23T02:19:07;7.43;;;6.70;;
6223;SDS011;3145;42.726;23.342;2023-01-23T02:21:40;8.43;;;7.47;;
6223;SDS011;3145;42.726;23.342;2023-01-23T02:24:12;9.57;;;7.47;;
6223;SDS011;3145;42.726;23.342;2023-01-23T02:26:45;9.23;;;7.60;;
6223;SDS011;3145;42.726;23.342;2023-01-23T02:29:13;7.50;;;6.80;;
6223;SDS011;3145;42.726;23.342;2023-01-23T02:31:40;9.00;;;7.70;;
6223;SDS011;3145;42.726;23.342;2023-01-23T02:34:09;8.77;;;7.83;;
6223;SDS011;3145;42.726;23.342;2023-01-23T02:36:37;9.33;;;8.13;;
6223;SDS011;3145;42.726;23.342;2023-01-23T02:39:10;9.37;;;7.40;;
6223;SDS011;3145;42.726;23.342;2023-01-23T02:41:39;8.70;;;7.17;;
6223;SDS011;3145;42.726;23.342;2023-01-23T02:44:10;7.17;;;6.50;;
6223;SDS011;3145;42.726;23.342;2023-01-23T02:46:41;8.57;;;6.60;;
6223;SDS011;3145;42.726;23.342;2023-01-23T02:49:08;10.80;;;8.80;;
6223;SDS011;3145;42.726;23.342;2023-01-23T02:51:35;11.70;;;7.40;;
6223;SDS011;3145;42.726;23.342;2023-01-23T02:54:02;6.53;;;5.93;;
6223;SDS011;3145;42.726;23.342;2023-01-23T02:56:29;7.33;;;6.57;;
6223;SDS011;3145;42.726;23.342;2023-01-23T02:58:56;8.43;;;6.57;;
6223;SDS011;3145;42.726;23.342;2023-01-23T03:01:41;8.07;;;7.37;;
6223;SDS011;3145;42.726;23.342;2023-01-23T03:04:08;6.40;;;5.90;;
6223;SDS011;3145;42.726;23.342;2023-01-23T03:06:35;8.70;;;7.17;;
6223;SDS011;3145;42.726;23.342;2023-01-23T03:09:03;8.10;;;7.30;;
6223;SDS011;3145;42.726;23.342;2023-01-23T03:11:34;7.60;;;6.80;;
6223;SDS011;3145;42.726;23.342;2023-01-23T03:14:02;6.00;;;5.50;;
6223;SDS011;3145;42.726;23.342;2023-01-23T03:16:28;6.90;;;6.30;;
6223;SDS011;3145;42.726;23.342;2023-01-23T03:18:58;4.30;;;4.00;;
6223;SDS011;3145;42.726;23.342;2023-01-23T03:21:29;6.03;;;5.57;;
6223;SDS011;3145;42.726;23.342;2023-01-23T03:23:56;5.90;;;5.40;;
6223;SDS011;3145;42.726;23.342;2023-01-23T03:26:22;6.47;;;5.80;;
6223;SDS011;3145;42.726;23.342;2023-01-23T03:28:49;6.53;;;5.53;;
6223;SDS011;3145;42.726;23.342;2023-01-23T03:31:34;6.47;;;5.83;;
6223;SDS011;3145;42.726;23.342;2023-01-23T03:34:02;7.23;;;6.40;;
6223;SDS011;3145;42.726;23.342;2023-01-23T03:36:28;6.93;;;6.33;;
6223;SDS011;3145;42.726;23.342;2023-01-23T03:38:55;6.93;;;6.30;;
6223;SDS011;3145;42.726;23.342;2023-01-23T03:41:39;7.30;;;6.70;;
6223;SDS011;3145;42.726;23.342;2023-01-23T03:44:09;6.57;;;5.97;;
6223;SDS011;3145;42.726;23.342;2023-01-23T03:46:37;6.90;;;6.30;;
6223;SDS011;3145;42.726;23.342;2023-01-23T03:49:05;6.97;;;6.27;;
6223;SDS011;3145;42.726;23.342;2023-01-23T03:51:31;6.43;;;5.90;;
6223;SDS011;3145;42.726;23.342;2023-01-23T03:53:58;6.13;;;5.53;;
6223;SDS011;3145;42.726;23.342;2023-01-23T03:56:25;6.77;;;6.30;;
6223;SDS011;3145;42.726;23.342;2023-01-23T03:58:51;6.13;;;5.63;;
6223;SDS011;3145;42.726;23.342;2023-01-23T04:01:18;5.60;;;5.20;;
6223;SDS011;3145;42.726;23.342;2023-01-23T04:03:45;9.17;;;8.17;;
6223;SDS011;3145;42.726;23.342;2023-01-23T04:06:13;9.77;;;7.70;;
6223;SDS011;3145;42.726;23.342;2023-01-23T04:08:40;6.57;;;5.87;;
6223;SDS011;3145;42.726;23.342;2023-01-23T04:11:07;7.87;;;5.10;;
6223;SDS011;3145;42.726;23.342;2023-01-23T04:13:35;5.73;;;5.23;;
6223;SDS011;3145;42.726;23.342;2023-01-23T04:16:03;6.13;;;5.63;;
6223;SDS011;3145;42.726;23.342;2023-01-23T04:18:30;6.73;;;6.10;;
6223;SDS011;3145;42.726;23.342;2023-01-23T04:20:57;6.33;;;5.87;;
6223;SDS011;3145;42.726;23.342;2023-01-23T04:23:25;9.43;;;7.00;;
6223;SDS011;3145;42.726;23.342;2023-01-23T04:25:52;10.83;;;7.90;;
6223;SDS011;3145;42.726;23.342;2023-01-23T04:28:19;9.50;;;8.23;;
6223;SDS011;3145;42.726;23.342;2023-01-23T04:30:46;14.70;;;11.00;;
6223;SDS011;3145;42.726;23.342;2023-01-23T04:33:12;12.57;;;9.70;;
6223;SDS011;3145;42.726;23.342;2023-01-23T04:35:39;7.63;;;6.90;;
6223;SDS011;3145;42.726;23.342;2023-01-23T04:38:06;10.63;;;8.57;;
6223;SDS011;3145;42.726;23.342;2023-01-23T04:40:34;17.23;;;11.40;;
6223;SDS011;3145;42.726;23.342;2023-01-23T04:43:01;9.07;;;7.40;;
6223;SDS011;3145;42.726;23.342;2023-01-23T04:45:28;14.83;;;10.87;;
6223;SDS011;3145;42.726;23.342;2023-01-23T04:47:54;12.43;;;9.80;;
6223;SDS011;3145;42.726;23.342;2023-01-23T04:50:21;20.33;;;14.73;;
6223;SDS011;3145;42.726;23.342;2023-01-23T04:52:48;9.57;;;6.37;;
6223;SDS011;3145;42.726;23.342;2023-01-23T04:55:15;6.37;;;4.50;;
6223;SDS011;3145;42.726;23.342;2023-01-23T04:57:43;4.83;;;4.53;;
6223;SDS011;3145;42.726;23.342;2023-01-23T05:00:10;4.67;;;4.27;;
6223;SDS011;3145;42.726;23.342;2023-01-23T05:02:38;4.13;;;3.87;;
6223;SDS011;3145;42.726;23.342;2023-01-23T05:05:05;10.60;;;4.37;;
6223;SDS011;3145;42.726;23.342;2023-01-23T05:07:32;8.57;;;6.00;;
6223;SDS011;3145;42.726;23.342;2023-01-23T05:09:59;6.97;;;4.73;;
6223;SDS011;3145;42.726;23.342;2023-01-23T05:12:26;5.03;;;4.30;;
6223;SDS011;3145;42.726;23.342;2023-01-23T05:14:56;4.90;;;4.47;;
6223;SDS011;3145;42.726;23.342;2023-01-23T05:17:23;5.53;;;4.80;;
6223;SDS011;3145;42.726;23.342;2023-01-23T05:19:49;7.37;;;4.27;;
6223;SDS011;3145;42.726;23.342;2023-01-23T05:22:16;9.20;;;6.47;;
6223;SDS011;3145;42.726;23.342;2023-01-23T05:24:43;7.17;;;3.63;;
6223;SDS011;3145;42.726;23.342;2023-01-23T05:27:10;4.93;;;4.17;;
6223;SDS011;3145;42.726;23.342;2023-01-23T05:29:37;5.33;;;4.20;;
6223;SDS011;3145;42.726;23.342;2023-01-23T05:32:05;3.13;;;2.93;;
6223;SDS011;3145;42.726;23.342;2023-01-23T05:34:32;5.40;;;4.90;;
6223;SDS011;3145;42.726;23.342;2023-01-23T05:36:59;5.80;;;4.70;;
6223;SDS011;3145;42.726;23.342;2023-01-23T05:39:26;5.90;;;4.27;;
6223;SDS011;3145;42.726;23.342;2023-01-23T05:41:52;4.27;;;3.97;;
6223;SDS011;3145;42.726;23.342;2023-01-23T05:44:19;3.70;;;3.43;;
6223;SDS011;3145;42.726;23.342;2023-01-23T05:46:46;5.40;;;4.10;;
6223;SDS011;3145;42.726;23.342;2023-01-23T05:49:14;4.23;;;3.93;;
6223;SDS011;3145;42.726;23.342;2023-01-23T05:51:40;7.37;;;3.67;;
6223;SDS011;3145;42.726;23.342;2023-01-23T05:54:08;6.57;;;4.10;;
6223;SDS011;3145;42.726;23.342;2023-01-23T05:56:35;7.37;;;5.83;;
6223;SDS011;3145;42.726;23.342;2023-01-23T05:59:02;6.27;;;5.67;;
6223;SDS011;3145;42.726;23.342;2023-01-23T06:01:29;4.37;;;4.07;;
6223;SDS011;3145;42.726;23.342;2023-01-23T06:03:56;6.93;;;6.20;;
6223;SDS011;3145;42.726;23.342;2023-01-23T06:06:24;8.13;;;7.27;;
6223;SDS011;3145;42.726;23.342;2023-01-23T06:08:51;5.00;;;4.60;;
6223;SDS011;3145;42.726;23.342;2023-01-23T06:11:17;7.57;;;6.43;;
6223;SDS011;3145;42.726;23.342;2023-01-23T06:13:44;8.00;;;7.30;;
6223;SDS011;3145;42.726;23.342;2023-01-23T06:16:11;4.80;;;4.50;;
6223;SDS011;3145;42.726;23.342;2023-01-23T06:18:37;4.37;;;3.97;;
6223;SDS011;3145;42.726;23.342;2023-01-23T06:21:04;8.53;;;6.20;;
6223;SDS011;3145;42.726;23.342;2023-01-23T06:23:32;7.60;;;6.80;;
6223;SDS011;3145;42.726;23.342;2023-01-23T06:25:59;8.43;;;5.57;;
6223;SDS011;3145;42.726;23.342;2023-01-23T06:28:27;4.07;;;3.77;;
6223;SDS011;3145;42.726;23.342;2023-01-23T06:30:54;17.67;;;10.87;;
6223;SDS011;3145;42.726;23.342;2023-01-23T06:33:25;11.07;;;7.23;;
6223;SDS011;3145;42.726;23.342;2023-01-23T06:35:55;7.10;;;6.30;;
6223;SDS011;3145;42.726;23.342;2023-01-23T06:38:23;4.93;;;4.53;;
6223;SDS011;3145;42.726;23.342;2023-01-23T06:40:51;6.80;;;4.43;;
6223;SDS011;3145;42.726;23.342;2023-01-23T06:43:18;5.30;;;4.80;;
6223;SDS011;3145;42.726;23.342;2023-01-23T06:45:44;5.03;;;3.73;;
6223;SDS011;3145;42.726;23.342;2023-01-23T06:48:11;5.87;;;5.37;;
6223;SDS011;3145;42.726;23.342;2023-01-23T06:50:39;6.00;;;5.43;;
6223;SDS011;3145;42.726;23.342;2023-01-23T06:53:06;5.20;;;4.77;;
6223;SDS011;3145;42.726;23.342;2023-01-23T06:55:33;5.30;;;4.83;;
6223;SDS011;3145;42.726;23.342;2023-01-23T06:58:02;11.27;;;7.07;;
6223;SDS011;3145;42.726;23.342;2023-01-23T07:00:28;7.17;;;6.47;;
6223;SDS011;3145;42.726;23.342;2023-01-23T07:02:55;10.93;;;6.10;;
6223;SDS011;3145;42.726;23.342;2023-01-23T07:05:23;8.23;;;7.43;;
6223;SDS011;3145;42.726;23.342;2023-01-23T07:07:50;4.47;;;3.70;;
6223;SDS011;3145;42.726;23.342;2023-01-23T07:10:17;9.87;;;7.90;;
6223;SDS011;3145;42.726;23.342;2023-01-23T07:12:43;7.23;;;6.60;;
6223;SDS011;3145;42.726;23.342;2023-01-23T07:15:11;7.30;;;5.70;;
6223;SDS011;3145;42.726;23.342;2023-01-23T07:17:38;7.77;;;6.47;;
6223;SDS011;3145;42.726;23.342;2023-01-23T07:20:05;11.80;;;7.37;;
6223;SDS011;3145;42.726;23.342;2023-01-23T07:22:33;11.83;;;8.80;;
6223;SDS011;3145;42.726;23.342;2023-01-23T07:25:00;9.57;;;7.67;;
6223;SDS011;3145;42.726;23.342;2023-01-23T07:27:27;11.07;;;7.37;;
6223;SDS011;3145;42.726;23.342;2023-01-23T07:29:53;8.90;;;8.00;;
6223;SDS011;3145;42.726;23.342;2023-01-23T07:32:21;8.47;;;6.67;;
6223;SDS011;3145;42.726;23.342;2023-01-23T07:34:48;15.43;;;9.20;;
6223;SDS011;3145;42.726;23.342;2023-01-23T07:37:17;10.53;;;8.83;;
6223;SDS011;3145;42.726;23.342;2023-01-23T07:39:43;12.80;;;10.00;;
6223;SDS011;3145;42.726;23.342;2023-01-23T07:42:10;13.77;;;9.60;;
6223;SDS011;3145;42.726;23.342;2023-01-23T07:44:37;6.87;;;6.17;;
6223;SDS011;3145;42.726;23.342;2023-01-23T07:47:04;9.63;;;7.00;;
6223;SDS011;3145;42.726;23.342;2023-01-23T07:49:32;13.37;;;8.23;;
6223;SDS011;3145;42.726;23.342;2023-01-23T07:51:59;14.97;;;8.87;;
6223;SDS011;3145;42.726;23.342;2023-01-23T07:54:25;11.47;;;7.93;;
6223;SDS011;3145;42.726;23.342;2023-01-23T07:56:52;15.17;;;10.13;;
6223;SDS011;3145;42.726;23.342;2023-01-23T07:59:19;17.43;;;11.17;;
6223;SDS011;3145;42.726;23.342;2023-01-23T08:01:46;13.57;;;9.40;;
6223;SDS011;3145;42.726;23.342;2023-01-23T08:04:15;12.20;;;9.30;;
6223;SDS011;3145;42.726;23.342;2023-01-23T08:06:43;9.03;;;8.13;;
6223;SDS011;3145;42.726;23.342;2023-01-23T08:09:10;14.33;;;8.50;;
6223;SDS011;3145;42.726;23.342;2023-01-23T08:11:37;9.33;;;8.03;;
6223;SDS011;3145;42.726;23.342;2023-01-23T08:14:04;9.80;;;7.87;;
6223;SDS011;3145;42.726;23.342;2023-01-23T08:16:31;11.80;;;8.73;;
6223;SDS011;3145;42.726;23.342;2023-01-23T08:18:58;10.23;;;8.17;;
6223;SDS011;3145;42.726;23.342;2023-01-23T08:21:24;19.33;;;10.57;;
6223;SDS011;3145;42.726;23.342;2023-01-23T08:23:52;12.03;;;9.47;;
6223;SDS011;3145;42.726;23.342;2023-01-23T08:26:20;13.77;;;9.23;;
6223;SDS011;3145;42.726;23.342;2023-01-23T08:28:46;22.53;;;13.20;;
6223;SDS011;3145;42.726;23.342;2023-01-23T08:31:13;8.50;;;6.97;;
6223;SDS011;3145;42.726;23.342;2023-01-23T08:33:40;13.63;;;9.70;;
6223;SDS011;3145;42.726;23.342;2023-01-23T08:36:07;11.03;;;9.67;;
6223;SDS011;3145;42.726;23.342;2023-01-23T08:38:36;11.33;;;6.47;;
6223;SDS011;3145;42.726;23.342;2023-01-23T08:41:05;13.17;;;9.43;;
6223;SDS011;3145;42.726;23.342;2023-01-23T08:43:34;12.93;;;9.53;;
6223;SDS011;3145;42.726;23.342;2023-01-23T08:46:00;10.30;;;8.87;;
6223;SDS011;3145;42.726;23.342;2023-01-23T08:48:27;11.67;;;8.53;;
6223;SDS011;3145;42.726;23.342;2023-01-23T08:50:58;8.63;;;7.47;;
6223;SDS011;3145;42.726;23.342;2023-01-23T08:53:26;10.87;;;8.93;;
6223;SDS011;3145;42.726;23.342;2023-01-23T08:55:57;14.13;;;8.87;;
6223;SDS011;3145;42.726;23.342;2023-01-23T08:58:26;13.73;;;9.73;;
6223;SDS011;3145;42.726;23.342;2023-01-23T09:00:53;13.60;;;8.97;;
6223;SDS011;3145;42.726;23.342;2023-01-23T09:03:20;8.80;;;7.40;;
6223;SDS011;3145;42.726;23.342;2023-01-23T09:05:47;23.33;;;7.30;;
6223;SDS011;3145;42.726;23.342;2023-01-23T09:08:14;9.57;;;7.23;;
6223;SDS011;3145;42.726;23.342;2023-01-23T09:10:41;14.43;;;7.30;;
6223;SDS011;3145;42.726;23.342;2023-01-23T09:13:08;5.73;;;5.30;;
6223;SDS011;3145;42.726;23.342;2023-01-23T09:15:38;8.77;;;7.93;;
6223;SDS011;3145;42.726;23.342;2023-01-23T09:18:05;12.70;;;7.43;;
6223;SDS011;3145;42.726;23.342;2023-01-23T09:20:32;10.17;;;5.90;;
6223;SDS011;3145;42.726;23.342;2023-01-23T09:22:59;14.73;;;8.43;;
6223;SDS011;3145;42.726;23.342;2023-01-23T09:25:26;11.93;;;9.73;;
6223;SDS011;3145;42.726;23.342;2023-01-23T09:27:55;7.67;;;6.73;;
6223;SDS011;3145;42.726;23.342;2023-01-23T09:30:22;12.30;;;6.13;;
6223;SDS011;3145;42.726;23.342;2023-01-23T09:32:50;7.80;;;5.97;;
6223;SDS011;3145;42.726;23.342;2023-01-23T09:35:17;8.47;;;5.97;;
6223;SDS011;3145;42.726;23.342;2023-01-23T09:37:44;12.53;;;7.53;;
6223;SDS011;3145;42.726;23.342;2023-01-23T09:40:27;10.03;;;8.63;;
6223;SDS011;3145;42.726;23.342;2023-01-23T09:42:56;9.70;;;8.70;;
6223;SDS011;3145;42.726;23.342;2023-01-23T09:45:26;14.60;;;8.73;;
6223;SDS011;3145;42.726;23.342;2023-01-23T09:47:58;8.07;;;7.23;;
6223;SDS011;3145;42.726;23.342;2023-01-23T09:50:36;10.03;;;6.57;;
6223;SDS011;3145;42.726;23.342;2023-01-23T09:53:11;5.63;;;5.17;;
6223;SDS011;3145;42.726;23.342;2023-01-23T09:55:41;6.87;;;5.37;;
6223;SDS011;3145;42.726;23.342;2023-01-23T09:58:13;7.13;;;6.43;;
6223;SDS011;3145;42.726;23.342;2023-01-23T10:00:44;6.03;;;5.43;;
6223;SDS011;3145;42.726;23.342;2023-01-23T10:03:13;6.77;;;6.00;;
6223;SDS011;3145;42.726;23.342;2023-01-23T10:05:44;6.27;;;5.33;;
6223;SDS011;3145;42.726;23.342;2023-01-23T10:08:24;8.40;;;6.03;;
6223;SDS011;3145;42.726;23.342;2023-01-23T10:10:59;11.03;;;7.53;;
6223;SDS011;3145;42.726;23.342;2023-01-23T10:13:32;7.37;;;6.33;;
6223;SDS011;3145;42.726;23.342;2023-01-23T10:16:18;11.00;;;8.43;;
6223;SDS011;3145;42.726;23.342;2023-01-23T10:18:57;10.57;;;8.87;;
6223;SDS011;3145;42.726;23.342;2023-01-23T10:21:36;7.03;;;6.40;;
6223;SDS011;3145;42.726;23.342;2023-01-23T10:24:11;7.30;;;6.13;;
6223;SDS011;3145;42.726;23.342;2023-01-23T10:26:53;9.70;;;7.17;;
6223;SDS011;3145;42.726;23.342;2023-01-23T10:29:26;13.23;;;8.07;;
6223;SDS011;3145;42.726;23.342;2023-01-23T10:31:56;12.73;;;10.17;;
6223;SDS011;3145;42.726;23.342;2023-01-23T10:34:27;8.77;;;6.33;;
6223;SDS011;3145;42.726;23.342;2023-01-23T10:37:04;7.37;;;6.47;;
6223;SDS011;3145;42.726;23.342;2023-01-23T10:39:41;21.63;;;5.77;;
6223;SDS011;3145;42.726;23.342;2023-01-23T10:42:14;13.30;;;7.00;;
6223;SDS011;3145;42.726;23.342;2023-01-23T10:44:46;7.77;;;7.07;;
6223;SDS011;3145;42.726;23.342;2023-01-23T10:47:14;6.17;;;5.10;;
6223;SDS011;3145;42.726;23.342;2023-01-23T10:49:47;10.33;;;7.30;;
6223;SDS011;3145;42.726;23.342;2023-01-23T10:52:28;11.07;;;7.60;;
6223;SDS011;3145;42.726;23.342;2023-01-23T10:54:57;12.63;;;7.73;;
6223;SDS011;3145;42.726;23.342;2023-01-23T10:57:25;7.63;;;6.93;;
6223;SDS011;3145;42.726;23.342;2023-01-23T10:59:55;4.47;;;4.17;;
6223;SDS011;3145;42.726;23.342;2023-01-23T11:02:28;8.93;;;6.80;;
6223;SDS011;3145;42.726;23.342;2023-01-23T11:04:58;7.50;;;6.80;;
6223;SDS011;3145;42.726;23.342;2023-01-23T11:07:27;9.53;;;6.53;;
6223;SDS011;3145;42.726;23.342;2023-01-23T11:09:57;8.50;;;6.40;;
6223;SDS011;3145;42.726;23.342;2023-01-23T11:12:26;8.47;;;7.57;;
6223;SDS011;3145;42.726;23.342;2023-01-23T11:17:45;8.93;;;7.23;;
6223;SDS011;3145;42.726;23.342;2023-01-23T11:20:22;12.97;;;9.30;;
6223;SDS011;3145;42.726;23.342;2023-01-23T11:23:04;5.60;;;5.20;;
6223;SDS011;3145;42.726;23.342;2023-01-23T11:25:40;10.97;;;9.53;;
6223;SDS011;3145;42.726;23.342;2023-01-23T11:28:17;9.63;;;8.30;;
6223;SDS011;3145;42.726;23.342;2023-01-23T11:30:48;10.70;;;7.27;;
6223;SDS011;3145;42.726;23.342;2023-01-23T11:33:20;14.23;;;7.67;;
6223;SDS011;3145;42.726;23.342;2023-01-23T11:36:01;12.43;;;9.87;;
6223;SDS011;3145;42.726;23.342;2023-01-23T11:38:33;9.90;;;8.33;;
6223;SDS011;3145;42.726;23.342;2023-01-23T11:41:03;12.77;;;10.30;;
6223;SDS011;3145;42.726;23.342;2023-01-23T11:43:30;10.33;;;8.80;;
6223;SDS011;3145;42.726;23.342;2023-01-23T11:46:06;11.87;;;10.23;;
6223;SDS011;3145;42.726;23.342;2023-01-23T11:48:55;10.23;;;8.03;;
6223;SDS011;3145;42.726;23.342;2023-01-23T11:51:35;22.67;;;11.50;;
6223;SDS011;3145;42.726;23.342;2023-01-23T11:54:13;8.23;;;6.97;;
6223;SDS011;3145;42.726;23.342;2023-01-23T11:57:04;7.20;;;6.53;;
6223;SDS011;3145;42.726;23.342;2023-01-23T11:59:44;11.17;;;9.30;;
6223;SDS011;3145;42.726;23.342;2023-01-23T12:05:34;7.77;;;6.70;;
6223;SDS011;3145;42.726;23.342;2023-01-23T12:08:14;12.33;;;9.60;;
6223;SDS011;3145;42.726;23.342;2023-01-23T12:10:51;8.00;;;7.20;;
6223;SDS011;3145;42.726;23.342;2023-01-23T12:13:34;6.20;;;5.60;;
6223;SDS011;3145;42.726;23.342;2023-01-23T12:16:15;12.27;;;10.03;;
6223;SDS011;3145;42.726;23.342;2023-01-23T12:18:54;7.83;;;7.07;;
6223;SDS011;3145;42.726;23.342;2023-01-23T12:21:37;12.63;;;8.77;;
6223;SDS011;3145;42.726;23.342;2023-01-23T12:24:18;9.17;;;8.30;;
6223;SDS011;3145;42.726;23.342;2023-01-23T12:26:59;10.20;;;9.20;;
6223;SDS011;3145;42.726;23.342;2023-01-23T12:29:47;16.27;;;10.20;;
6223;SDS011;3145;42.726;23.342;2023-01-23T12:32:36;19.97;;;13.37;;
6223;SDS011;3145;42.726;23.342;2023-01-23T12:35:20;13.67;;;9.60;;
6223;SDS011;3145;42.726;23.342;2023-01-23T12:38:02;11.23;;;10.07;;
6223;SDS011;3145;42.726;23.342;2023-01-23T12:40:45;10.93;;;9.63;;
6223;SDS011;3145;42.726;23.342;2023-01-23T12:43:17;8.37;;;7.57;;
6223;SDS011;3145;42.726;23.342;2023-01-23T12:45:55;10.93;;;9.00;;
6223;SDS011;3145;42.726;23.342;2023-01-23T12:48:28;17.23;;;13.50;;
6223;SDS011;3145;42.726;23.342;2023-01-23T12:51:01;10.90;;;9.03;;
6223;SDS011;3145;42.726;23.342;2023-01-23T12:53:34;10.37;;;9.23;;
6223;SDS011;3145;42.726;23.342;2023-01-23T12:56:06;9.33;;;7.60;;
6223;SDS011;3145;42.726;23.342;2023-01-23T12:58:36;11.60;;;9.57;;
6223;SDS011;3145;42.726;23.342;2023-01-23T13:01:20;12.37;;;10.83;;
6223;SDS011;3145;42.726;23.342;2023-01-23T13:03:57;11.93;;;9.70;;
6223;SDS011;3145;42.726;23.342;2023-01-23T13:06:40;18.30;;;11.87;;
6223;SDS011;3145;42.726;23.342;2023-01-23T13:09:27;16.10;;;11.60;;
6223;SDS011;3145;42.726;23.342;2023-01-23T13:12:06;11.33;;;8.73;;
6223;SDS011;3145;42.726;23.342;2023-01-23T13:14:43;11.67;;;8.73;;
6223;SDS011;3145;42.726;23.342;2023-01-23T13:20:22;22.17;;;13.07;;
6223;SDS011;3145;42.726;23.342;2023-01-23T13:23:18;25.33;;;14.80;;
6223;SDS011;3145;42.726;23.342;2023-01-23T13:25:49;19.57;;;13.93;;
6223;SDS011;3145;42.726;23.342;2023-01-23T13:28:40;21.13;;;11.47;;
6223;SDS011;3145;42.726;23.342;2023-01-23T13:31:21;25.10;;;16.77;;
6223;SDS011;3145;42.726;23.342;2023-01-23T13:33:52;17.10;;;12.93;;
6223;SDS011;3145;42.726;23.342;2023-01-23T13:36:30;16.30;;;11.90;;
6223;SDS011;3145;42.726;23.342;2023-01-23T13:39:03;21.93;;;13.20;;
6223;SDS011;3145;42.726;23.342;2023-01-23T13:41:45;24.83;;;15.90;;
6223;SDS011;3145;42.726;23.342;2023-01-23T13:44:17;28.50;;;19.07;;
6223;SDS011;3145;42.726;23.342;2023-01-23T13:47:08;15.20;;;11.47;;
6223;SDS011;3145;42.726;23.342;2023-01-23T13:50:03;35.37;;;20.73;;
6223;SDS011;3145;42.726;23.342;2023-01-23T13:52:35;37.87;;;22.20;;
6223;SDS011;3145;42.726;23.342;2023-01-23T13:55:24;27.37;;;14.10;;
6223;SDS011;3145;42.726;23.342;2023-01-23T13:58:10;28.77;;;16.77;;
6223;SDS011;3145;42.726;23.342;2023-01-23T14:00:40;25.57;;;16.40;;
6223;SDS011;3145;42.726;23.342;2023-01-23T14:03:33;16.17;;;11.20;;
6223;SDS011;3145;42.726;23.342;2023-01-23T14:06:18;23.23;;;13.57;;
6223;SDS011;3145;42.726;23.342;2023-01-23T14:08:56;22.33;;;14.93;;
6223;SDS011;3145;42.726;23.342;2023-01-23T14:11:23;22.97;;;16.73;;
6223;SDS011;3145;42.726;23.342;2023-01-23T14:13:50;24.43;;;15.43;;
6223;SDS011;3145;42.726;23.342;2023-01-23T14:16:41;17.37;;;11.87;;
6223;SDS011;3145;42.726;23.342;2023-01-23T14:19:14;17.37;;;13.70;;
6223;SDS011;3145;42.726;23.342;2023-01-23T14:21:50;16.07;;;12.03;;
6223;SDS011;3145;42.726;23.342;2023-01-23T14:24:19;21.93;;;15.43;;
6223;SDS011;3145;42.726;23.342;2023-01-23T14:26:47;23.27;;;15.00;;
6223;SDS011;3145;42.726;23.342;2023-01-23T14:29:22;27.50;;;16.57;;
6223;SDS011;3145;42.726;23.342;2023-01-23T14:31:51;19.37;;;14.17;;
6223;SDS011;3145;42.726;23.342;2023-01-23T14:34:20;23.47;;;14.57;;
6223;SDS011;3145;42.726;23.342;2023-01-23T14:36:49;17.23;;;11.37;;
6223;SDS011;3145;42.726;23.342;2023-01-23T14:39:18;18.90;;;13.77;;
6223;SDS011;3145;42.726;23.342;2023-01-23T14:41:47;22.33;;;13.40;;
6223;SDS011;3145;42.726;23.342;2023-01-23T14:44:17;19.83;;;12.90;;
6223;SDS011;3145;42.726;23.342;2023-01-23T14:46:49;16.37;;;9.90;;
6223;SDS011;3145;42.726;23.342;2023-01-23T14:49:21;22.73;;;14.03;;
6223;SDS011;3145;42.726;23.342;2023-01-23T14:51:55;24.40;;;15.17;;
6223;SDS011;3145;42.726;23.342;2023-01-23T14:54:23;23.03;;;16.20;;
6223;SDS011;3145;42.726;23.342;2023-01-23T14:56:50;21.53;;;14.30;;
6223;SDS011;3145;42.726;23.342;2023-01-23T14:59:22;28.77;;;17.43;;
6223;SDS011;3145;42.726;23.342;2023-01-23T15:01:53;24.33;;;15.53;;
6223;SDS011;3145;42.726;23.342;2023-01-23T15:04:22;23.33;;;14.90;;
6223;SDS011;3145;42.726;23.342;2023-01-23T15:06:52;34.50;;;16.73;;
6223;SDS011;3145;42.726;23.342;2023-01-23T15:09:23;31.90;;;19.40;;
6223;SDS011;3145;42.726;23.342;2023-01-23T15:11:53;26.33;;;14.47;;
6223;SDS011;3145;42.726;23.342;2023-01-23T15:14:22;15.63;;;11.27;;
6223;SDS011;3145;42.726;23.342;2023-01-23T15:16:57;17.87;;;11.57;;
6223;SDS011;3145;42.726;23.342;2023-01-23T15:19:28;30.97;;;18.47;;